createdAt,value
2023-01-29T00:01:51.394Z,14.25
2023-01-29T00:04:54.646Z,15.60
2023-01-29T00:07:58.856Z,14.73
2023-01-29T00:11:10.171Z,15.40
2023-01-29T00:14:11.807Z,15.15
2023-01-29T00:17:13.487Z,14.37
2023-01-29T00:20:16.041Z,14.80
2023-01-29T00:23:18.079Z,14.18
2023-01-29T00:26:19.749Z,15.07
2023-01-29T00:29:25.162Z,15.18
2023-01-29T00:32:26.749Z,14.32
2023-01-29T00:35:28.380Z,14.02
2023-01-29T00:38:29.974Z,13.93
2023-01-29T00:41:54.411Z,15.95
2023-01-29T00:44:58.541Z,14.85
2023-01-29T00:48:00.227Z,14.67
2023-01-29T00:51:02.499Z,14.50
2023-01-29T00:54:04.490Z,14.55
2023-01-29T00:57:09.379Z,14.90
2023-01-29T01:00:13.040Z,14.82
2023-01-29T01:03:14.763Z,15.02
2023-01-29T01:06:16.411Z,15.18
2023-01-29T01:09:36.261Z,14.37
2023-01-29T01:12:41.455Z,15.18
2023-01-29T01:15:43.101Z,14.32
2023-01-29T01:18:44.751Z,16.60
2023-01-29T01:21:48.389Z,15.02
2023-01-29T01:24:50.490Z,14.25
2023-01-29T01:27:56.374Z,13.65
2023-01-29T01:30:58.019Z,14.77
2023-01-29T01:33:59.903Z,15.82
2023-01-29T01:37:01.544Z,15.30
2023-01-29T01:40:18.629Z,14.60
2023-01-29T01:43:24.895Z,14.52
2023-01-29T01:46:36.922Z,14.32
2023-01-29T01:49:38.570Z,13.50
2023-01-29T01:52:42.264Z,15.57
2023-01-29T01:55:56.277Z,15.07
2023-01-29T01:59:01.481Z,14.15
2023-01-29T02:02:22.035Z,14.65
2023-01-29T02:05:41.863Z,13.98
2023-01-29T02:09:07.221Z,13.57
2023-01-29T02:12:11.386Z,12.77
2023-01-29T02:15:13.280Z,14.30
2023-01-29T02:18:16.666Z,13.50
2023-01-29T02:21:36.567Z,13.17
2023-01-29T02:24:50.320Z,12.30
2023-01-29T02:28:30.216Z,13.85
2023-01-29T02:31:35.692Z,12.88
2023-01-29T02:35:20.370Z,13.82
2023-01-29T02:38:36.042Z,12.88
2023-01-29T02:41:43.089Z,13.02
2023-01-29T02:44:56.021Z,13.87
2023-01-29T02:47:58.908Z,13.57
2023-01-29T02:51:05.958Z,13.13
2023-01-29T02:54:17.857Z,12.73
2023-01-29T02:57:29.309Z,12.70
2023-01-29T03:00:41.006Z,12.55
2023-01-29T03:03:53.478Z,12.45
2023-01-29T03:07:01.075Z,11.98
2023-01-29T03:10:02.711Z,12.98
2023-01-29T03:13:14.685Z,12.98
2023-01-29T03:16:26.078Z,11.90
2023-01-29T03:19:40.068Z,11.60
2023-01-29T03:22:41.720Z,11.35
2023-01-29T03:26:01.835Z,12.40
2023-01-29T03:29:25.516Z,11.73
2023-01-29T03:32:28.964Z,10.82
2023-01-29T03:35:35.476Z,11.13
2023-01-29T03:38:37.136Z,10.32
2023-01-29T03:41:52.930Z,10.73
2023-01-29T03:45:07.746Z,10.63
2023-01-29T03:48:32.296Z,10.17
2023-01-29T03:51:41.203Z,10.50
2023-01-29T03:55:01.773Z,10.57
2023-01-29T03:58:24.474Z,9.47
2023-01-29T04:01:37.305Z,9.00
2023-01-29T04:04:40.215Z,10.27
2023-01-29T04:07:41.791Z,8.90
2023-01-29T04:10:43.405Z,9.38
2023-01-29T04:13:45.223Z,8.48
2023-01-29T04:16:48.905Z,9.13
2023-01-29T04:19:50.603Z,8.80
2023-01-29T04:22:52.470Z,9.98
2023-01-29T04:26:15.065Z,8.30
2023-01-29T04:29:45.873Z,8.57
2023-01-29T04:33:10.742Z,8.57
2023-01-29T04:36:27.815Z,9.20
2023-01-29T04:39:39.502Z,8.80
2023-01-29T04:42:54.014Z,8.32
2023-01-29T04:46:17.664Z,9.15
2023-01-29T04:49:37.268Z,9.35
2023-01-29T04:52:53.155Z,9.50
2023-01-29T04:55:58.605Z,9.20
2023-01-29T04:59:04.213Z,9.35
2023-01-29T05:02:05.813Z,9.40
2023-01-29T05:05:08.004Z,8.85
2023-01-29T05:08:10.717Z,9.68
2023-01-29T05:11:12.830Z,8.43
2023-01-29T05:14:14.843Z,9.75
2023-01-29T05:17:18.355Z,8.30
2023-01-29T05:20:19.972Z,10.30
2023-01-29T05:23:22.204Z,9.90
2023-01-29T05:26:42.530Z,8.98
2023-01-29T05:29:45.837Z,10.77
2023-01-29T05:32:47.423Z,9.90
2023-01-29T05:35:49.464Z,9.50
2023-01-29T05:38:51.065Z,10.23
2023-01-29T05:41:52.846Z,9.95
2023-01-29T05:44:54.593Z,10.57
2023-01-29T05:47:57.945Z,10.25
2023-01-29T05:51:03.303Z,10.93
2023-01-29T05:54:05.097Z,10.17
2023-01-29T05:57:06.701Z,10.60
2023-01-29T06:00:09.408Z,9.32
2023-01-29T06:03:11.051Z,9.77
2023-01-29T06:06:12.886Z,9.98
2023-01-29T06:09:14.583Z,10.90
2023-01-29T06:12:16.192Z,10.18
2023-01-29T06:15:19.778Z,10.05
2023-01-29T06:18:21.454Z,9.73
2023-01-29T06:21:23.146Z,9.38
2023-01-29T06:24:24.805Z,10.20
2023-01-29T06:27:26.494Z,9.75
2023-01-29T06:30:28.547Z,9.77
2023-01-29T06:33:30.305Z,9.07
2023-01-29T06:36:31.948Z,9.70
2023-01-29T06:39:33.924Z,10.10
2023-01-29T06:42:35.944Z,9.77
2023-01-29T06:45:37.632Z,9.75
2023-01-29T06:48:39.293Z,8.88
2023-01-29T06:51:45.179Z,8.60
2023-01-29T06:54:47.414Z,9.00
2023-01-29T06:57:49.053Z,8.73
2023-01-29T07:00:50.711Z,8.32
2023-01-29T07:03:52.439Z,8.60
2023-01-29T07:06:54.113Z,8.02
2023-01-29T07:09:55.726Z,8.00
2023-01-29T07:12:59.196Z,9.43
2023-01-29T07:16:01.587Z,8.20
2023-01-29T07:19:03.202Z,7.80
2023-01-29T07:22:05.827Z,8.07
2023-01-29T07:25:08.180Z,7.93
2023-01-29T07:28:09.838Z,7.95
2023-01-29T07:31:12.489Z,7.32
2023-01-29T07:34:14.198Z,8.00
2023-01-29T07:37:15.798Z,8.32
2023-01-29T07:40:17.872Z,7.43
2023-01-29T07:43:19.735Z,7.05
2023-01-29T07:46:21.354Z,7.53
2023-01-29T07:49:22.973Z,7.32
2023-01-29T07:52:24.641Z,7.35
2023-01-29T07:55:26.426Z,7.50
2023-01-29T07:58:28.119Z,7.20
2023-01-29T08:01:29.843Z,6.85
2023-01-29T08:04:31.489Z,7.77
2023-01-29T08:07:33.099Z,6.68
2023-01-29T08:10:35.413Z,6.45
2023-01-29T08:13:37.057Z,6.72
2023-01-29T08:16:38.664Z,7.03
2023-01-29T08:19:40.274Z,6.13
2023-01-29T08:22:41.871Z,5.93
2023-01-29T08:25:43.606Z,6.03
2023-01-29T08:28:45.224Z,6.60
2023-01-29T08:31:46.925Z,5.88
2023-01-29T08:34:48.888Z,6.20
2023-01-29T08:37:54.942Z,6.40
2023-01-29T08:40:56.574Z,5.15
2023-01-29T08:43:58.236Z,6.13
2023-01-29T08:46:59.888Z,6.05
2023-01-29T08:50:01.475Z,6.40
2023-01-29T08:53:04.497Z,6.10
2023-01-29T08:56:06.298Z,5.77
2023-01-29T08:59:07.962Z,6.60
2023-01-29T09:02:11.251Z,6.15
2023-01-29T09:05:12.934Z,5.60
2023-01-29T09:08:15.563Z,6.45
2023-01-29T09:11:17.278Z,6.05
2023-01-29T09:14:19.101Z,5.75
2023-01-29T09:17:20.731Z,6.40
2023-01-29T09:20:26.150Z,6.13
2023-01-29T09:23:27.871Z,6.32
2023-01-29T09:26:29.500Z,5.47
2023-01-29T09:29:31.121Z,6.10
2023-01-29T09:36:00.094Z,5.90
2023-01-29T09:39:01.849Z,5.55
2023-01-29T09:42:24.331Z,5.93
2023-01-29T09:45:26.831Z,6.18
2023-01-29T09:48:30.196Z,5.78
2023-01-29T09:51:40.239Z,5.60
2023-01-29T09:54:55.903Z,5.78
2023-01-29T09:58:06.329Z,5.57
2023-01-29T10:01:35.506Z,5.68
2023-01-29T10:05:18.547Z,5.20
2023-01-29T10:08:32.578Z,5.93
2023-01-29T10:11:51.126Z,5.22
2023-01-29T10:15:17.660Z,5.80
2023-01-29T10:18:33.986Z,5.00
2023-01-29T10:21:44.813Z,5.10
2023-01-29T10:25:16.804Z,5.72
2023-01-29T10:28:19.804Z,5.88
2023-01-29T10:31:38.653Z,5.63
2023-01-29T10:34:46.921Z,5.72
2023-01-29T10:37:52.147Z,5.53
2023-01-29T10:41:08.184Z,6.03
2023-01-29T10:44:31.587Z,5.03
2023-01-29T10:47:52.686Z,5.68
2023-01-29T10:51:00.249Z,5.97
2023-01-29T10:54:28.943Z,5.80
2023-01-29T10:57:42.596Z,5.90
2023-01-29T11:00:44.220Z,5.13
2023-01-29T11:03:45.940Z,5.27
2023-01-29T11:06:51.182Z,5.63
2023-01-29T11:09:58.026Z,5.05
2023-01-29T11:12:59.660Z,5.73
2023-01-29T11:16:01.278Z,5.10
2023-01-29T11:19:03.050Z,5.88
2023-01-29T11:22:04.692Z,5.40
2023-01-29T11:25:17.349Z,5.28
2023-01-29T11:28:39.748Z,5.15
2023-01-29T11:31:41.473Z,5.63
2023-01-29T11:35:02.646Z,5.60
2023-01-29T11:38:27.768Z,6.05
2023-01-29T11:41:29.364Z,5.88
2023-01-29T11:44:38.415Z,5.57
2023-01-29T11:47:40.043Z,6.15
2023-01-29T11:50:41.694Z,5.88
2023-01-29T11:53:44.860Z,6.45
2023-01-29T11:56:46.578Z,5.25
2023-01-29T11:59:50.409Z,6.15
2023-01-29T12:02:58.328Z,4.85
2023-01-29T12:06:20.476Z,5.10
2023-01-29T12:09:32.868Z,4.63
2023-01-29T12:12:44.314Z,5.00
2023-01-29T12:15:46.076Z,5.20
2023-01-29T12:19:26.578Z,4.63
2023-01-29T12:22:44.150Z,4.75
2023-01-29T12:26:14.162Z,4.55
2023-01-29T12:29:28.189Z,5.25
2023-01-29T12:32:45.620Z,5.35
2023-01-29T12:35:56.354Z,5.50
2023-01-29T12:39:03.294Z,4.87
2023-01-29T12:42:17.260Z,4.57
2023-01-29T12:45:19.938Z,4.70
2023-01-29T12:48:25.549Z,4.90
2023-01-29T12:51:33.863Z,4.90
2023-01-29T12:54:41.686Z,4.88
2023-01-29T12:58:09.491Z,4.90
2023-01-29T13:01:32.906Z,5.17
2023-01-29T13:04:38.363Z,4.38
2023-01-29T13:07:42.298Z,4.90
2023-01-29T13:10:49.839Z,5.10
2023-01-29T13:13:59.785Z,5.40
2023-01-29T13:17:21.619Z,5.47
2023-01-29T13:20:25.851Z,5.43
2023-01-29T13:23:37.584Z,5.43
2023-01-29T13:26:39.264Z,4.68
2023-01-29T13:29:40.925Z,4.93
2023-01-29T13:32:42.587Z,5.20
2023-01-29T13:35:45.181Z,4.90
2023-01-29T13:38:47.619Z,5.30
2023-01-29T13:41:49.278Z,5.80
2023-01-29T13:44:52.582Z,5.55
2023-01-29T13:47:54.235Z,5.63
2023-01-29T13:50:56.597Z,5.68
2023-01-29T13:54:06.522Z,5.32
2023-01-29T13:57:17.235Z,5.97
2023-01-29T14:00:21.865Z,5.63
2023-01-29T14:03:23.561Z,5.10
2023-01-29T14:06:36.758Z,5.72
2023-01-29T14:09:41.733Z,5.55
2023-01-29T14:12:43.521Z,5.43
2023-01-29T14:15:46.411Z,5.75
2023-01-29T14:18:58.970Z,5.90
2023-01-29T14:22:00.565Z,6.10
2023-01-29T14:25:04.047Z,5.70
2023-01-29T14:28:05.803Z,5.68
2023-01-29T14:31:07.756Z,6.55
2023-01-29T14:34:20.475Z,6.63
2023-01-29T14:37:40.470Z,5.95
2023-01-29T14:40:45.024Z,5.93
2023-01-29T14:43:46.618Z,5.57
2023-01-29T14:46:48.226Z,6.63
2023-01-29T14:49:56.676Z,6.30
2023-01-29T14:53:20.233Z,5.80
2023-01-29T14:56:31.483Z,5.80
2023-01-29T14:59:34.890Z,6.05
2023-01-29T15:02:41.373Z,6.80
2023-01-29T15:05:43.021Z,6.57
2023-01-29T15:08:49.876Z,6.65
2023-01-29T15:11:59.027Z,6.25
2023-01-29T15:15:08.235Z,6.33
2023-01-29T15:18:15.319Z,6.38
2023-01-29T15:21:18.189Z,6.35
2023-01-29T15:24:19.834Z,6.47
2023-01-29T15:27:21.469Z,6.70
2023-01-29T15:30:26.293Z,5.53
2023-01-29T15:33:28.010Z,6.00
2023-01-29T15:36:30.600Z,5.83
2023-01-29T15:39:32.282Z,7.07
2023-01-29T15:42:48.536Z,6.43
2023-01-29T15:45:54.051Z,7.20
2023-01-29T15:48:57.670Z,6.68
2023-01-29T15:52:00.962Z,6.70
2023-01-29T15:55:05.614Z,6.82
2023-01-29T15:58:07.850Z,7.05
2023-01-29T16:01:09.739Z,7.15
2023-01-29T16:04:18.155Z,7.53
2023-01-29T16:07:21.094Z,6.83
2023-01-29T16:10:24.661Z,7.70
2023-01-29T16:13:31.026Z,6.80
2023-01-29T16:16:32.736Z,7.20
2023-01-29T16:19:34.501Z,6.93
2023-01-29T16:22:36.998Z,6.72
2023-01-29T16:25:38.708Z,7.50
2023-01-29T16:28:43.740Z,6.70
2023-01-29T16:31:46.036Z,7.40
2023-01-29T16:34:48.783Z,7.22
2023-01-29T16:37:50.541Z,7.10
2023-01-29T16:41:05.609Z,7.93
2023-01-29T16:44:16.425Z,7.07
2023-01-29T16:47:27.591Z,6.83
2023-01-29T16:50:35.918Z,6.90
2023-01-29T16:53:39.907Z,8.23
2023-01-29T16:56:42.759Z,7.82
2023-01-29T16:59:48.633Z,8.38
2023-01-29T17:02:51.609Z,8.88
2023-01-29T17:05:53.241Z,7.68
2023-01-29T17:08:54.852Z,8.53
2023-01-29T17:11:57.792Z,7.70
2023-01-29T17:15:01.276Z,9.55
2023-01-29T17:18:03.242Z,9.43
2023-01-29T17:21:04.960Z,8.60
2023-01-29T17:24:06.915Z,8.30
2023-01-29T17:27:16.999Z,8.75
2023-01-29T17:30:19.945Z,9.15
2023-01-29T17:33:26.063Z,9.23
2023-01-29T17:36:28.005Z,9.45
2023-01-29T17:39:29.591Z,8.63
2023-01-29T17:42:31.253Z,8.10
2023-01-29T17:45:32.969Z,8.50
2023-01-29T17:48:34.623Z,8.83
2023-01-29T17:51:36.271Z,7.53
2023-01-29T17:54:37.955Z,8.25
2023-01-29T17:57:39.536Z,8.48
2023-01-29T18:00:41.119Z,7.88
2023-01-29T18:03:43.776Z,7.55
2023-01-29T18:06:47.860Z,7.22
2023-01-29T18:09:49.486Z,7.53
2023-01-29T18:12:51.265Z,8.60
2023-01-29T18:15:52.908Z,7.63
2023-01-29T18:18:54.630Z,7.83
2023-01-29T18:21:56.299Z,8.05
2023-01-29T18:24:57.927Z,8.35
2023-01-29T18:27:59.672Z,8.15
2023-01-29T18:31:06.765Z,7.65
2023-01-29T18:34:08.564Z,7.80
2023-01-29T18:37:12.203Z,8.85
2023-01-29T18:40:17.287Z,7.70
2023-01-29T18:43:19.023Z,8.93
2023-01-29T18:46:20.844Z,7.88
2023-01-29T18:49:22.499Z,8.70
2023-01-29T18:52:24.268Z,8.45
2023-01-29T18:55:27.043Z,9.40
2023-01-29T18:58:36.052Z,8.90
2023-01-29T19:01:39.097Z,8.38
2023-01-29T19:04:40.937Z,9.00
2023-01-29T19:07:42.541Z,8.27
2023-01-29T19:10:44.462Z,8.77
2023-01-29T19:13:48.016Z,8.40
2023-01-29T19:16:50.172Z,7.82
2023-01-29T19:19:51.809Z,8.13
2023-01-29T19:22:53.426Z,7.95
2023-01-29T19:25:57.111Z,8.00
2023-01-29T19:28:58.738Z,8.65
2023-01-29T19:32:00.421Z,7.50
2023-01-29T19:35:02.087Z,8.73
2023-01-29T19:38:04.175Z,8.18
2023-01-29T19:41:05.863Z,7.93
2023-01-29T19:44:07.730Z,7.70
2023-01-29T19:47:09.470Z,8.23
2023-01-29T19:50:11.564Z,8.53
2023-01-29T19:53:13.275Z,8.95
2023-01-29T19:56:16.392Z,9.02
2023-01-29T19:59:18.033Z,9.40
2023-01-29T20:02:19.719Z,8.48
2023-01-29T20:05:21.352Z,8.77
2023-01-29T20:08:24.007Z,8.90
2023-01-29T20:11:25.703Z,9.07
2023-01-29T20:14:27.287Z,10.25
2023-01-29T20:17:32.698Z,9.23
2023-01-29T20:20:34.280Z,10.43
2023-01-29T20:23:38.403Z,9.25
2023-01-29T20:26:40.660Z,10.77
2023-01-29T20:29:43.749Z,11.35
2023-01-29T20:32:45.330Z,13.82
2023-01-29T20:35:58.556Z,13.88
2023-01-29T20:39:00.218Z,11.50
2023-01-29T20:42:01.974Z,12.13
2023-01-29T20:45:03.882Z,14.50
2023-01-29T20:48:08.045Z,12.35
2023-01-29T20:51:15.681Z,11.57
2023-01-29T20:54:17.424Z,10.63
2023-01-29T20:57:19.199Z,11.20
2023-01-29T21:00:21.047Z,10.80
2023-01-29T21:03:22.761Z,9.93
2023-01-29T21:06:25.501Z,9.85
2023-01-29T21:09:27.148Z,9.32
2023-01-29T21:12:28.795Z,10.10
2023-01-29T21:15:30.633Z,9.27
2023-01-29T21:18:32.403Z,9.40
2023-01-29T21:21:34.732Z,9.60
2023-01-29T21:24:36.438Z,9.60
2023-01-29T21:27:38.146Z,9.27
2023-01-29T21:30:39.863Z,10.40
2023-01-29T21:33:45.689Z,9.18
2023-01-29T21:36:47.316Z,10.18
2023-01-29T21:39:49.089Z,10.90
2023-01-29T21:43:09.841Z,10.50
2023-01-29T21:46:11.854Z,11.23
2023-01-29T21:49:13.736Z,10.73
2023-01-29T21:52:15.540Z,10.47
2023-01-29T21:55:17.192Z,10.23
2023-01-29T21:58:20.894Z,9.48
2023-01-29T22:01:37.830Z,10.57
2023-01-29T22:04:40.867Z,10.70
2023-01-29T22:07:42.688Z,10.02
2023-01-29T22:10:44.581Z,10.50
2023-01-29T22:13:46.923Z,12.60
2023-01-29T22:16:48.604Z,13.35
2023-01-29T22:19:50.271Z,13.40
2023-01-29T22:22:51.891Z,13.90
2023-01-29T22:25:53.759Z,13.57
2023-01-29T22:28:55.371Z,13.32
2023-01-29T22:31:57.031Z,14.63
2023-01-29T22:34:58.663Z,13.20
2023-01-29T22:38:00.246Z,12.73
2023-01-29T22:41:01.881Z,13.98
2023-01-29T22:44:03.539Z,12.50
2023-01-29T22:47:05.211Z,12.52
2023-01-29T22:50:07.174Z,12.48
2023-01-29T22:53:08.913Z,11.77
2023-01-29T22:56:11.366Z,11.02
2023-01-29T22:59:12.960Z,11.52
2023-01-29T23:02:14.598Z,9.93
2023-01-29T23:05:16.997Z,11.77
2023-01-29T23:08:18.654Z,10.50
2023-01-29T23:11:21.017Z,10.85
2023-01-29T23:14:22.624Z,10.70
2023-01-29T23:17:24.279Z,9.40
2023-01-29T23:20:27.183Z,9.35
2023-01-29T23:23:29.495Z,9.90
2023-01-29T23:26:49.369Z,9.52
2023-01-29T23:29:50.986Z,9.95
2023-01-29T23:32:52.611Z,10.30
2023-01-29T23:35:55.226Z,8.95
2023-01-29T23:38:56.922Z,9.30
2023-01-29T23:41:58.629Z,8.95
2023-01-29T23:45:00.239Z,8.93
2023-01-29T23:48:01.849Z,8.35
2023-01-29T23:51:03.736Z,8.43
2023-01-29T23:54:05.553Z,8.77
2023-01-29T23:57:07.196Z,8.32
